Time;durP1;ratioP1;P1;durP2;ratioP2;P2;SDS_P1;SDS_P2;PMS_P1;PMS_P2;Temp;Humidity;BMP_temperature;BMP_pressure;BME280_temperature;BME280_humidity;BME280_pressure;Samples;Min_cycle;Max_cycle;Signal;HPM_P1;HPM_P2
2024/03/17 00:01:14;;;;;;;65.70;11.87;;;;;;;;;;5012201;28;20453;-71
2024/03/17 00:03:40;;;;;;;64.00;10.40;;;;;;;;;;5012172;28;20522;-71
2024/03/17 00:06:09;;;;;;;64.23;11.13;;;;;;;;;;5012421;28;20506;-71
2024/03/17 00:08:35;;;;;;;63.80;11.23;;;;;;;;;;5011944;28;20517;-71
2024/03/17 00:11:03;;;;;;;65.90;11.87;;;;;;;;;;5012086;28;20823;-71
2024/03/17 00:13:29;;;;;;;63.90;10.60;;;;;;;;;;5012057;28;20945;-70
2024/03/17 00:15:56;;;;;;;65.83;10.90;;;;;;;;;;5012195;28;20484;-71
2024/03/17 00:18:22;;;;;;;64.77;10.90;;;;;;;;;;5011201;28;20855;-71
2024/03/17 00:20:49;;;;;;;64.37;11.27;;;;;;;;;;5011946;28;20511;-71
2024/03/17 00:23:17;;;;;;;66.00;11.03;;;;;;;;;;5027436;28;20456;-71
2024/03/17 00:25:44;;;;;;;66.27;10.77;;;;;;;;;;5031679;28;20539;-70
2024/03/17 00:28:11;;;;;;;62.53;9.40;;;;;;;;;;5031279;28;20907;-71
2024/03/17 00:30:38;;;;;;;68.13;11.00;;;;;;;;;;5031601;28;20559;-71
2024/03/17 00:33:05;;;;;;;65.40;9.50;;;;;;;;;;5031440;28;20958;-71
2024/03/17 00:35:33;;;;;;;64.43;10.60;;;;;;;;;;5031750;28;20874;-71
2024/03/17 00:38:00;;;;;;;63.97;10.70;;;;;;;;;;5031240;28;20476;-70
2024/03/17 00:40:28;;;;;;;65.43;10.57;;;;;;;;;;5031483;28;20459;-71
2024/03/17 00:42:54;;;;;;;65.97;10.20;;;;;;;;;;5031575;28;20476;-71
2024/03/17 00:45:21;;;;;;;68.53;10.77;;;;;;;;;;5031599;28;20973;-71
2024/03/17 00:47:48;;;;;;;63.77;9.70;;;;;;;;;;5031101;28;20472;-71
2024/03/17 00:50:15;;;;;;;69.07;10.83;;;;;;;;;;5031353;28;21099;-71
2024/03/17 00:52:41;;;;;;;63.80;9.97;;;;;;;;;;5031426;28;20455;-71
2024/03/17 00:55:10;;;;;;;65.10;12.03;;;;;;;;;;5031497;28;21012;-71
2024/03/17 00:57:38;;;;;;;70.70;14.03;;;;;;;;;;5031190;28;20479;-71
2024/03/17 01:00:06;;;;;;;67.47;13.23;;;;;;;;;;5025643;28;20878;-71
2024/03/17 01:02:33;;;;;;;72.90;13.03;;;;;;;;;;5011799;28;20476;-71
2024/03/17 01:04:59;;;;;;;73.60;13.80;;;;;;;;;;5011797;28;20450;-71
2024/03/17 01:07:26;;;;;;;68.70;12.57;;;;;;;;;;5011398;28;20839;-71
2024/03/17 01:09:52;;;;;;;78.70;13.77;;;;;;;;;;5011571;28;20499;-71
2024/03/17 01:12:19;;;;;;;92.57;13.30;;;;;;;;;;5011482;28;20468;-71
2024/03/17 01:14:47;;;;;;;76.63;11.87;;;;;;;;;;5011375;28;20979;-71
2024/03/17 01:17:14;;;;;;;98.90;12.33;;;;;;;;;;5011232;28;20508;-71
2024/03/17 01:19:41;;;;;;;76.30;12.70;;;;;;;;;;5011586;28;20448;-71
2024/03/17 01:22:07;;;;;;;101.73;16.40;;;;;;;;;;5011366;28;20460;-71
2024/03/17 01:24:34;;;;;;;80.33;11.90;;;;;;;;;;5011367;28;20456;-71
2024/03/17 01:27:01;;;;;;;71.43;12.73;;;;;;;;;;5011135;28;20475;-71
2024/03/17 01:29:28;;;;;;;82.93;13.37;;;;;;;;;;5012922;28;20580;-71
2024/03/17 01:31:56;;;;;;;86.50;15.17;;;;;;;;;;5015007;28;20448;-71
2024/03/17 01:34:23;;;;;;;142.97;19.57;;;;;;;;;;5014878;28;20455;-71
2024/03/17 01:36:49;;;;;;;76.27;13.37;;;;;;;;;;5014546;28;20558;-71
2024/03/17 01:39:18;;;;;;;101.47;17.17;;;;;;;;;;5015416;28;20536;-71
2024/03/17 01:41:44;;;;;;;103.60;16.40;;;;;;;;;;5014660;28;20884;-71
2024/03/17 01:44:23;;;;;;;138.40;19.97;;;;;;;;;;5014690;28;20556;-71
2024/03/17 01:46:49;;;;;;;80.53;14.90;;;;;;;;;;5014236;28;20477;-71
2024/03/17 01:49:18;;;;;;;84.77;15.57;;;;;;;;;;5014562;28;20487;-71
2024/03/17 01:51:45;;;;;;;78.23;15.33;;;;;;;;;;5014286;28;20457;-71
2024/03/17 01:54:12;;;;;;;82.53;15.00;;;;;;;;;;5014473;28;20449;-71
2024/03/17 01:56:39;;;;;;;80.63;14.67;;;;;;;;;;5014035;28;20453;-71
2024/03/17 01:59:06;;;;;;;86.43;16.70;;;;;;;;;;5014525;28;20452;-71
2024/03/17 02:01:33;;;;;;;92.03;15.10;;;;;;;;;;5014100;28;20456;-71
2024/03/17 02:04:00;;;;;;;71.67;15.50;;;;;;;;;;5019364;28;20458;-71
2024/03/17 02:06:28;;;;;;;86.20;14.50;;;;;;;;;;5033890;28;20514;-71
2024/03/17 02:08:55;;;;;;;72.43;14.20;;;;;;;;;;5033619;28;20489;-71
2024/03/17 02:11:26;;;;;;;69.67;12.10;;;;;;;;;;5033993;28;20452;-71
2024/03/17 02:13:53;;;;;;;143.90;17.70;;;;;;;;;;5034067;28;20449;-71
2024/03/17 02:16:20;;;;;;;91.17;14.43;;;;;;;;;;5033883;28;20816;-71
2024/03/17 02:18:46;;;;;;;97.07;13.40;;;;;;;;;;5033778;28;20463;-71
2024/03/17 02:21:14;;;;;;;81.80;12.47;;;;;;;;;;5033754;28;20529;-71
2024/03/17 02:23:42;;;;;;;82.13;13.13;;;;;;;;;;5034018;28;20460;-71
2024/03/17 02:26:09;;;;;;;70.27;13.17;;;;;;;;;;5033767;28;20452;-71
2024/03/17 02:28:39;;;;;;;70.67;12.33;;;;;;;;;;5033261;28;20486;-71
2024/03/17 02:31:07;;;;;;;74.77;13.37;;;;;;;;;;5022203;28;20481;-71
2024/03/17 02:33:33;;;;;;;80.73;13.80;;;;;;;;;;5012632;28;20461;-71
2024/03/17 02:36:00;;;;;;;121.90;15.50;;;;;;;;;;5007414;28;20456;-71
2024/03/17 02:41:14;;;;;;;72.67;12.77;;;;;;;;;;5023361;28;20447;-71
2024/03/17 02:43:41;;;;;;;70.03;12.50;;;;;;;;;;5014093;28;20535;-71
2024/03/17 02:46:08;;;;;;;66.67;10.63;;;;;;;;;;5010411;28;20475;-71
2024/03/17 02:48:36;;;;;;;73.50;12.70;;;;;;;;;;5011321;28;20478;-71
2024/03/17 02:51:04;;;;;;;97.43;13.40;;;;;;;;;;5012748;28;20481;-71
2024/03/17 02:53:31;;;;;;;68.63;12.83;;;;;;;;;;5013076;28;20453;-71
2024/03/17 02:55:58;;;;;;;77.80;13.07;;;;;;;;;;5018870;28;20466;-71
2024/03/17 02:58:27;;;;;;;77.90;13.03;;;;;;;;;;5013067;28;20793;-71
2024/03/17 03:00:54;;;;;;;69.37;12.93;;;;;;;;;;5020165;28;20442;-71
2024/03/17 03:03:21;;;;;;;69.37;12.07;;;;;;;;;;5024131;28;20447;-71
2024/03/17 03:05:49;;;;;;;74.60;12.13;;;;;;;;;;5027729;28;20472;-71
2024/03/17 03:08:16;;;;;;;71.90;13.53;;;;;;;;;;5011960;28;20475;-71
2024/03/17 03:10:45;;;;;;;66.90;11.10;;;;;;;;;;5020833;28;20492;-71
2024/03/17 03:13:12;;;;;;;69.67;10.87;;;;;;;;;;5032768;28;20831;-71
2024/03/17 03:15:41;;;;;;;69.80;13.07;;;;;;;;;;5026007;28;20453;-71
2024/03/17 03:18:08;;;;;;;72.93;13.20;;;;;;;;;;5017560;28;20473;-71
2024/03/17 03:20:35;;;;;;;82.10;12.17;;;;;;;;;;5014373;28;20450;-71
2024/03/17 03:23:03;;;;;;;68.83;12.43;;;;;;;;;;5011479;28;20893;-71
2024/03/17 03:25:30;;;;;;;70.30;12.23;;;;;;;;;;5020552;28;20853;-71
2024/03/17 03:27:59;;;;;;;66.97;12.33;;;;;;;;;;5019714;28;20603;-71
2024/03/17 03:30:26;;;;;;;68.13;11.83;;;;;;;;;;5012480;28;20489;-71
2024/03/17 03:32:55;;;;;;;78.90;14.67;;;;;;;;;;5020636;28;20460;-71
2024/03/17 03:35:22;;;;;;;67.20;12.97;;;;;;;;;;5012216;28;20457;-71
2024/03/17 03:37:49;;;;;;;70.07;13.63;;;;;;;;;;5018325;28;20567;-71
2024/03/17 03:40:17;;;;;;;75.10;12.37;;;;;;;;;;5020756;28;20832;-71
2024/03/17 03:42:44;;;;;;;70.50;13.03;;;;;;;;;;5011502;28;20508;-71
2024/03/17 03:45:12;;;;;;;71.60;13.43;;;;;;;;;;5012377;28;20457;-71
2024/03/17 03:47:39;;;;;;;74.40;13.63;;;;;;;;;;5019900;28;20854;-71
2024/03/17 03:50:09;;;;;;;68.07;13.93;;;;;;;;;;5011861;28;20488;-71
2024/03/17 03:52:37;;;;;;;66.70;12.27;;;;;;;;;;5017611;28;20535;-71
2024/03/17 03:55:07;;;;;;;67.17;12.47;;;;;;;;;;5023088;28;20453;-71
2024/03/17 03:57:34;;;;;;;69.43;12.70;;;;;;;;;;5024096;28;20480;-71
2024/03/17 04:00:05;;;;;;;71.37;13.37;;;;;;;;;;5016052;28;20825;-71
2024/03/17 04:02:34;;;;;;;74.60;14.20;;;;;;;;;;5015496;28;20540;-71
2024/03/17 04:05:01;;;;;;;77.40;15.00;;;;;;;;;;5012291;28;20454;-71
2024/03/17 04:07:28;;;;;;;68.87;12.50;;;;;;;;;;5011621;28;20508;-71
2024/03/17 04:09:57;;;;;;;72.90;14.50;;;;;;;;;;5019350;28;20493;-71
2024/03/17 04:12:24;;;;;;;107.20;17.07;;;;;;;;;;5011871;28;20795;-71
2024/03/17 04:14:53;;;;;;;92.73;15.23;;;;;;;;;;5011886;28;20453;-71
2024/03/17 04:17:21;;;;;;;103.53;16.97;;;;;;;;;;5017510;28;20517;-71
2024/03/17 04:19:49;;;;;;;71.60;14.00;;;;;;;;;;5019349;28;20507;-71
2024/03/17 04:22:16;;;;;;;72.43;15.90;;;;;;;;;;5018450;28;20457;-71
2024/03/17 04:24:43;;;;;;;68.67;12.53;;;;;;;;;;5010375;28;20467;-71
2024/03/17 04:27:13;;;;;;;88.90;15.00;;;;;;;;;;5011235;28;20481;-71
2024/03/17 04:29:40;;;;;;;97.07;12.87;;;;;;;;;;5019648;28;20499;-71
2024/03/17 04:32:08;;;;;;;76.07;11.33;;;;;;;;;;5011929;28;20458;-71
2024/03/17 04:34:35;;;;;;;88.03;12.07;;;;;;;;;;5011638;28;20457;-71
2024/03/17 04:37:03;;;;;;;74.40;12.07;;;;;;;;;;5017562;28;20488;-71
2024/03/17 04:39:31;;;;;;;95.83;12.50;;;;;;;;;;5014854;28;20457;-71
2024/03/17 04:41:59;;;;;;;74.73;12.43;;;;;;;;;;5019638;28;20485;-71
2024/03/17 04:44:28;;;;;;;72.40;11.50;;;;;;;;;;5019702;28;20460;-71
2024/03/17 04:46:55;;;;;;;76.50;12.37;;;;;;;;;;5010252;28;20881;-71
2024/03/17 04:49:22;;;;;;;71.53;11.50;;;;;;;;;;5014758;28;20456;-71
2024/03/17 04:51:50;;;;;;;87.37;12.10;;;;;;;;;;5018922;28;20943;-71
2024/03/17 04:54:17;;;;;;;70.07;10.43;;;;;;;;;;5010836;28;20457;-71
2024/03/17 04:56:44;;;;;;;75.10;12.57;;;;;;;;;;5010557;28;20502;-71
2024/03/17 04:59:11;;;;;;;113.23;13.90;;;;;;;;;;5023938;28;20477;-71
2024/03/17 05:01:39;;;;;;;67.37;11.30;;;;;;;;;;5019312;28;20452;-71
2024/03/17 05:04:06;;;;;;;71.80;12.10;;;;;;;;;;5032302;28;20834;-71
2024/03/17 05:06:34;;;;;;;67.77;11.57;;;;;;;;;;5032300;28;20951;-71
2024/03/17 05:09:01;;;;;;;72.83;13.00;;;;;;;;;;5023458;28;20451;-71
2024/03/17 05:11:28;;;;;;;64.73;10.80;;;;;;;;;;5014933;28;20497;-71
2024/03/17 05:13:55;;;;;;;71.10;11.50;;;;;;;;;;5022439;28;20461;-71
2024/03/17 05:16:23;;;;;;;66.10;10.60;;;;;;;;;;5021769;28;20472;-71
2024/03/17 05:18:52;;;;;;;89.93;13.40;;;;;;;;;;5016418;28;20479;-71
2024/03/17 05:21:19;;;;;;;84.63;11.43;;;;;;;;;;5020427;28;20964;-71
2024/03/17 05:23:46;;;;;;;71.33;11.37;;;;;;;;;;5024174;28;20456;-71
2024/03/17 05:26:13;;;;;;;77.60;13.00;;;;;;;;;;5034980;28;20451;-71
2024/03/17 05:28:40;;;;;;;85.10;12.50;;;;;;;;;;5018932;28;20484;-71
2024/03/17 05:31:07;;;;;;;68.70;11.30;;;;;;;;;;5014633;28;20494;-71
2024/03/17 05:33:34;;;;;;;69.47;11.77;;;;;;;;;;5022369;28;20459;-71
2024/03/17 05:36:04;;;;;;;105.27;12.93;;;;;;;;;;5014732;28;20964;-71
2024/03/17 05:38:31;;;;;;;72.60;10.73;;;;;;;;;;5013744;28;20496;-71
2024/03/17 05:40:59;;;;;;;66.73;12.03;;;;;;;;;;5025512;28;20447;-71
2024/03/17 05:43:27;;;;;;;79.53;11.67;;;;;;;;;;5034596;28;20462;-71
2024/03/17 05:45:54;;;;;;;75.40;12.63;;;;;;;;;;5031775;28;20824;-71
2024/03/17 05:48:22;;;;;;;80.67;13.00;;;;;;;;;;5023210;28;20495;-71
2024/03/17 05:50:49;;;;;;;108.63;13.40;;;;;;;;;;5020736;28;20567;-71
2024/03/17 05:53:18;;;;;;;91.03;13.00;;;;;;;;;;5022788;28;20463;-71
2024/03/17 05:55:46;;;;;;;82.03;13.00;;;;;;;;;;5023464;28;21010;-71
2024/03/17 05:58:13;;;;;;;90.10;11.60;;;;;;;;;;5026262;28;20484;-71
2024/03/17 06:00:41;;;;;;;72.13;10.33;;;;;;;;;;5022539;28;20449;-71
2024/03/17 06:03:08;;;;;;;66.07;11.10;;;;;;;;;;5026389;28;20459;-71
2024/03/17 06:05:35;;;;;;;112.70;13.67;;;;;;;;;;5025893;28;20483;-71
2024/03/17 06:08:03;;;;;;;75.67;10.73;;;;;;;;;;5033689;28;21009;-71
2024/03/17 06:10:31;;;;;;;69.10;10.27;;;;;;;;;;5021907;28;20507;-71
2024/03/17 06:12:58;;;;;;;94.07;12.60;;;;;;;;;;5014974;28;20453;-71
2024/03/17 06:15:26;;;;;;;86.37;10.53;;;;;;;;;;5013101;28;20456;-71
2024/03/17 06:17:53;;;;;;;76.73;10.93;;;;;;;;;;5023784;28;20864;-71
2024/03/17 06:20:20;;;;;;;68.17;10.90;;;;;;;;;;5033621;28;20486;-71
2024/03/17 06:22:48;;;;;;;71.83;11.00;;;;;;;;;;5033794;28;20451;-71
2024/03/17 06:25:15;;;;;;;75.20;9.80;;;;;;;;;;5033694;28;20455;-71
2024/03/17 06:27:43;;;;;;;66.80;10.30;;;;;;;;;;5033329;28;20460;-71
2024/03/17 06:30:13;;;;;;;63.47;10.27;;;;;;;;;;5033583;28;20494;-71
2024/03/17 06:32:41;;;;;;;68.20;10.73;;;;;;;;;;5033421;28;20931;-71
2024/03/17 06:35:08;;;;;;;72.87;11.67;;;;;;;;;;5033580;28;20457;-71
2024/03/17 06:37:35;;;;;;;66.43;9.40;;;;;;;;;;5033234;28;20855;-71
2024/03/17 06:40:03;;;;;;;69.00;10.00;;;;;;;;;;5030511;28;20503;-71
2024/03/17 06:42:30;;;;;;;66.20;10.13;;;;;;;;;;5013646;28;20456;-71
2024/03/17 06:44:58;;;;;;;76.70;11.33;;;;;;;;;;5013312;28;20454;-71
2024/03/17 06:47:26;;;;;;;66.10;11.53;;;;;;;;;;5013380;28;20482;-71
2024/03/17 06:49:53;;;;;;;67.87;11.20;;;;;;;;;;5013441;28;20504;-71
2024/03/17 06:52:20;;;;;;;64.80;10.00;;;;;;;;;;5013479;28;20457;-71
2024/03/17 06:54:50;;;;;;;77.80;11.53;;;;;;;;;;5013549;28;20453;-71
2024/03/17 06:57:17;;;;;;;73.53;10.20;;;;;;;;;;5013108;28;20881;-71
2024/03/17 06:59:45;;;;;;;63.43;9.30;;;;;;;;;;5013090;28;20456;-71
2024/03/17 07:02:17;;;;;;;63.00;9.27;;;;;;;;;;5013328;28;20942;-71
2024/03/17 07:04:44;;;;;;;66.50;9.60;;;;;;;;;;5013321;28;20540;-71
2024/03/17 07:07:11;;;;;;;78.33;9.73;;;;;;;;;;5013034;28;20469;-71
2024/03/17 07:09:39;;;;;;;68.37;10.43;;;;;;;;;;5020616;28;20459;-71
2024/03/17 07:12:07;;;;;;;65.20;10.17;;;;;;;;;;5032448;28;20488;-71
2024/03/17 07:14:34;;;;;;;69.83;9.73;;;;;;;;;;5032936;28;20467;-71
2024/03/17 07:17:01;;;;;;;72.93;10.47;;;;;;;;;;5032717;28;20828;-71
2024/03/17 07:19:30;;;;;;;68.80;10.33;;;;;;;;;;5032642;28;20463;-71
2024/03/17 07:21:58;;;;;;;63.13;9.67;;;;;;;;;;5032587;28;20448;-71
2024/03/17 07:24:25;;;;;;;65.80;9.53;;;;;;;;;;5032558;28;20956;-71
2024/03/17 07:26:52;;;;;;;65.63;9.73;;;;;;;;;;5032193;28;20472;-71
2024/03/17 07:29:20;;;;;;;63.53;9.60;;;;;;;;;;5032751;28;20545;-71
2024/03/17 07:31:47;;;;;;;65.30;10.50;;;;;;;;;;5032308;28;20492;-71
2024/03/17 07:34:14;;;;;;;64.37;10.33;;;;;;;;;;5032597;28;20445;-71
2024/03/17 07:36:43;;;;;;;64.00;9.50;;;;;;;;;;5031969;28;20957;-71
2024/03/17 07:39:12;;;;;;;62.90;8.60;;;;;;;;;;5012651;28;20938;-71
2024/03/17 07:41:39;;;;;;;62.13;8.73;;;;;;;;;;5012520;28;21001;-71
2024/03/17 07:44:07;;;;;;;61.47;8.53;;;;;;;;;;5012225;28;20450;-71
2024/03/17 07:46:34;;;;;;;64.30;10.60;;;;;;;;;;5012406;28;20543;-71
2024/03/17 07:49:01;;;;;;;61.73;8.60;;;;;;;;;;5012337;28;20453;-71
2024/03/17 07:51:28;;;;;;;61.80;8.27;;;;;;;;;;5012109;28;20853;-71
2024/03/17 07:53:57;;;;;;;61.50;7.97;;;;;;;;;;5030026;28;20463;-71
2024/03/17 07:56:24;;;;;;;62.57;8.90;;;;;;;;;;5032200;28;20451;-71
2024/03/17 07:58:51;;;;;;;61.40;8.40;;;;;;;;;;5031567;28;20986;-71
2024/03/17 08:01:18;;;;;;;61.53;8.53;;;;;;;;;;5031972;28;20448;-71
2024/03/17 08:03:46;;;;;;;61.97;8.77;;;;;;;;;;5031781;28;20457;-71
2024/03/17 08:06:13;;;;;;;61.90;7.97;;;;;;;;;;5031923;28;20456;-71
2024/03/17 08:08:41;;;;;;;64.10;9.13;;;;;;;;;;5031610;28;20472;-71
2024/03/17 08:11:09;;;;;;;60.87;7.83;;;;;;;;;;5031360;28;20492;-70
2024/03/17 08:13:37;;;;;;;63.23;9.37;;;;;;;;;;5031913;28;20446;-70
2024/03/17 08:16:05;;;;;;;60.10;7.00;;;;;;;;;;5029240;28;20952;-70
2024/03/17 08:18:32;;;;;;;60.40;7.00;;;;;;;;;;5011827;28;20503;-70
2024/03/17 08:21:01;;;;;;;62.40;8.47;;;;;;;;;;5012004;28;20462;-70
2024/03/17 08:23:28;;;;;;;60.33;7.47;;;;;;;;;;5027493;28;20485;-70
2024/03/17 08:25:55;;;;;;;60.60;7.40;;;;;;;;;;5026531;28;20458;-69
2024/03/17 08:28:24;;;;;;;61.07;7.07;;;;;;;;;;5006866;28;20481;-69
2024/03/17 08:30:54;;;;;;;60.77;7.03;;;;;;;;;;5019466;28;20491;-69
2024/03/17 08:33:22;;;;;;;60.63;7.23;;;;;;;;;;5024841;28;20453;-69
2024/03/17 08:35:56;;;;;;;60.17;8.00;;;;;;;;;;5019921;28;20454;-69
2024/03/17 08:38:24;;;;;;;61.07;7.30;;;;;;;;;;5011322;28;20544;-70
2024/03/17 08:40:51;;;;;;;61.20;7.50;;;;;;;;;;5023253;28;20461;-69
2024/03/17 08:43:18;;;;;;;60.47;6.87;;;;;;;;;;5023894;28;20815;-69
2024/03/17 08:45:47;;;;;;;61.10;6.47;;;;;;;;;;5015798;28;20951;-69
2024/03/17 08:48:14;;;;;;;60.07;6.87;;;;;;;;;;5019793;28;20466;-69
2024/03/17 08:50:41;;;;;;;60.00;7.20;;;;;;;;;;5035426;28;20887;-70
2024/03/17 08:53:08;;;;;;;60.53;7.30;;;;;;;;;;5035404;28;20468;-70
2024/03/17 08:55:35;;;;;;;59.13;6.80;;;;;;;;;;5035409;28;20449;-70
2024/03/17 08:58:02;;;;;;;59.40;6.20;;;;;;;;;;5035086;28;20473;-70
2024/03/17 09:00:30;;;;;;;60.73;7.17;;;;;;;;;;5021635;28;20940;-70
2024/03/17 09:02:58;;;;;;;59.40;7.07;;;;;;;;;;5015511;28;20446;-71
2024/03/17 09:05:25;;;;;;;60.20;6.80;;;;;;;;;;5015529;28;20449;-70
2024/03/17 09:07:53;;;;;;;59.80;6.70;;;;;;;;;;5023896;28;20476;-70
2024/03/17 09:10:20;;;;;;;62.80;6.63;;;;;;;;;;5022410;28;20456;-70
2024/03/17 09:12:47;;;;;;;60.87;6.40;;;;;;;;;;5023339;28;20499;-71
2024/03/17 09:15:14;;;;;;;58.77;5.93;;;;;;;;;;5031412;28;20939;-72
2024/03/17 09:17:41;;;;;;;59.90;6.60;;;;;;;;;;5015292;28;20476;-70
2024/03/17 09:20:12;;;;;;;59.87;6.50;;;;;;;;;;5017744;28;20449;-70
2024/03/17 09:22:39;;;;;;;59.33;6.03;;;;;;;;;;5034908;28;20507;-71
2024/03/17 09:25:08;;;;;;;60.20;6.80;;;;;;;;;;5034704;28;20902;-70
2024/03/17 09:27:36;;;;;;;59.50;6.13;;;;;;;;;;5028231;28;20521;-70
2024/03/17 09:30:06;;;;;;;60.90;7.10;;;;;;;;;;5014895;28;20600;-69
2024/03/17 09:32:33;;;;;;;59.40;5.93;;;;;;;;;;5021157;28;21025;-70
2024/03/17 09:35:00;;;;;;;59.00;6.23;;;;;;;;;;5034532;28;20460;-70
2024/03/17 09:37:31;;;;;;;60.40;6.40;;;;;;;;;;5034239;28;20533;-70
2024/03/17 09:39:59;;;;;;;60.60;7.50;;;;;;;;;;5017104;28;20457;-70
2024/03/17 09:42:28;;;;;;;58.60;5.97;;;;;;;;;;5014515;28;20586;-70
2024/03/17 09:44:56;;;;;;;60.07;6.57;;;;;;;;;;5014644;28;20446;-70
2024/03/17 09:47:23;;;;;;;59.00;6.00;;;;;;;;;;5014777;28;20578;-70
2024/03/17 09:49:51;;;;;;;60.73;6.27;;;;;;;;;;5014052;28;20450;-71
2024/03/17 09:52:23;;;;;;;59.53;6.77;;;;;;;;;;5013786;28;20479;-70
2024/03/17 09:54:59;;;;;;;59.27;6.53;;;;;;;;;;5030711;28;20864;-71
2024/03/17 09:57:26;;;;;;;59.10;6.10;;;;;;;;;;5034132;28;20820;-70
2024/03/17 09:59:54;;;;;;;59.40;6.33;;;;;;;;;;5034284;28;20442;-71
2024/03/17 10:02:22;;;;;;;59.60;6.50;;;;;;;;;;5034089;28;20785;-71
2024/03/17 10:04:49;;;;;;;59.90;6.37;;;;;;;;;;5018082;28;20453;-70
2024/03/17 10:07:16;;;;;;;59.83;6.20;;;;;;;;;;5009592;28;20469;-70
2024/03/17 10:09:44;;;;;;;59.20;6.57;;;;;;;;;;5026035;28;20803;-70
2024/03/17 10:25:41;;;;;;;58.83;6.10;;;;;;;;;;5129563;27;20525;-71
2024/03/17 10:28:11;;;;;;;59.37;5.93;;;;;;;;;;5115158;27;20480;-71
2024/03/17 10:30:39;;;;;;;58.50;5.83;;;;;;;;;;5102651;28;20926;-71
2024/03/17 10:33:08;;;;;;;58.27;5.80;;;;;;;;;;5108139;28;20443;-71
2024/03/17 10:35:38;;;;;;;60.20;5.00;;;;;;;;;;5100707;28;20545;-71
2024/03/17 10:38:06;;;;;;;59.20;5.40;;;;;;;;;;5106900;28;20466;-71
2024/03/17 10:40:36;;;;;;;59.30;5.93;;;;;;;;;;5096960;28;20508;-71
2024/03/17 10:43:04;;;;;;;58.87;6.17;;;;;;;;;;5105359;28;20532;-72
2024/03/17 10:45:35;;;;;;;58.80;5.83;;;;;;;;;;5097110;28;20453;-71
2024/03/17 10:48:03;;;;;;;59.43;6.17;;;;;;;;;;5098329;28;20536;-72
2024/03/17 10:50:31;;;;;;;58.87;5.73;;;;;;;;;;5100212;28;20448;-71
2024/03/17 10:53:02;;;;;;;58.30;5.40;;;;;;;;;;5099354;28;20449;-71
2024/03/17 10:55:33;;;;;;;58.17;5.17;;;;;;;;;;5096795;28;20450;-71
2024/03/17 10:58:01;;;;;;;58.70;4.67;;;;;;;;;;5097570;28;20815;-71
2024/03/17 11:00:30;;;;;;;59.70;5.00;;;;;;;;;;5100067;28;20437;-71
2024/03/17 11:02:58;;;;;;;57.70;5.17;;;;;;;;;;5108558;28;20446;-69
2024/03/17 11:05:29;;;;;;;58.37;5.00;;;;;;;;;;5108776;28;20453;-71
2024/03/17 11:08:01;;;;;;;58.47;5.00;;;;;;;;;;5108286;28;20470;-70
2024/03/17 11:10:29;;;;;;;58.93;6.13;;;;;;;;;;5108478;28;20439;-70
2024/03/17 11:12:58;;;;;;;58.13;5.60;;;;;;;;;;5108385;28;20452;-71
2024/03/17 11:15:42;;;;;;;58.53;4.90;;;;;;;;;;5108386;28;20443;-70
2024/03/17 11:18:28;;;;;;;57.80;4.97;;;;;;;;;;5108107;28;20892;-71
2024/03/17 11:20:59;;;;;;;58.37;5.50;;;;;;;;;;5107939;28;20457;-71
2024/03/17 11:23:30;;;;;;;58.30;5.30;;;;;;;;;;5107888;28;20535;-70
2024/03/17 11:25:57;;;;;;;57.80;4.93;;;;;;;;;;5097414;28;20445;-71
2024/03/17 11:28:43;;;;;;;58.20;4.97;;;;;;;;;;5094256;28;20477;-71
2024/03/17 11:31:25;;;;;;;57.57;4.63;;;;;;;;;;5092413;28;20466;-72
2024/03/17 11:33:55;;;;;;;57.30;4.60;;;;;;;;;;5090590;28;20447;-71
2024/03/17 11:38:58;;;;;;;58.53;4.67;;;;;;;;;;5125692;22;20545;-86
2024/03/17 11:41:31;;;;;;;57.63;3.93;;;;;;;;;;5116433;28;20446;-86
2024/03/17 11:44:13;;;;;;;57.47;4.47;;;;;;;;;;5115675;28;20564;-86
2024/03/17 11:46:39;;;;;;;56.90;3.70;;;;;;;;;;5096438;28;20470;-86
2024/03/17 11:49:08;;;;;;;57.47;4.43;;;;;;;;;;5095134;28;20805;-86
2024/03/17 11:51:35;;;;;;;58.47;4.40;;;;;;;;;;5095597;28;20879;-83
2024/03/17 11:54:03;;;;;;;58.00;4.30;;;;;;;;;;5095507;28;20454;-85
2024/03/17 11:56:30;;;;;;;57.90;4.57;;;;;;;;;;5100974;28;20521;-84
2024/03/17 11:59:05;;;;;;;58.30;4.47;;;;;;;;;;5094639;28;20478;-84
2024/03/17 12:01:32;;;;;;;58.37;4.83;;;;;;;;;;5095118;28;20445;-84
2024/03/17 12:04:03;;;;;;;58.10;4.57;;;;;;;;;;5094584;28;20502;-84
2024/03/17 12:06:34;;;;;;;58.07;5.07;;;;;;;;;;5094368;28;20459;-84
2024/03/17 12:09:14;;;;;;;58.20;4.30;;;;;;;;;;5093997;28;20518;-84
2024/03/17 12:11:40;;;;;;;58.10;4.00;;;;;;;;;;5094994;28;20443;-85
2024/03/17 12:14:19;;;;;;;57.73;4.30;;;;;;;;;;5094349;28;20446;-84
2024/03/17 12:16:48;;;;;;;59.33;4.17;;;;;;;;;;5094145;28;20467;-84
2024/03/17 12:19:17;;;;;;;59.47;4.20;;;;;;;;;;5094379;28;21174;-84
2024/03/17 12:21:46;;;;;;;61.00;4.10;;;;;;;;;;5095832;28;20454;-84
2024/03/17 12:24:16;;;;;;;58.70;4.17;;;;;;;;;;5094425;28;20569;-84
2024/03/17 12:26:43;;;;;;;57.10;3.70;;;;;;;;;;5094202;28;20467;-85
2024/03/17 12:29:27;;;;;;;59.60;5.33;;;;;;;;;;5094348;28;20442;-85
2024/03/17 12:31:54;;;;;;;59.27;4.50;;;;;;;;;;5095099;28;20861;-84
2024/03/17 12:34:22;;;;;;;58.17;4.03;;;;;;;;;;5094799;28;20990;-84
2024/03/17 12:36:50;;;;;;;58.83;4.40;;;;;;;;;;5093490;28;20439;-84
2024/03/17 12:39:20;;;;;;;59.80;4.40;;;;;;;;;;5094559;28;20480;-84
2024/03/17 12:42:01;;;;;;;58.77;4.13;;;;;;;;;;5094431;28;20851;-84
2024/03/17 12:44:29;;;;;;;58.03;4.00;;;;;;;;;;5087457;28;20463;-84
2024/03/17 12:46:56;;;;;;;57.70;4.13;;;;;;;;;;5094234;28;20443;-83
2024/03/17 12:49:24;;;;;;;57.50;3.80;;;;;;;;;;5094173;28;20919;-83
2024/03/17 12:51:53;;;;;;;60.20;3.77;;;;;;;;;;5095498;28;20462;-84
2024/03/17 12:54:24;;;;;;;57.57;3.43;;;;;;;;;;5094733;28;20447;-84
2024/03/17 13:02:28;;;;;;;58.43;3.87;;;;;;;;;;5094323;28;20921;-84
2024/03/17 13:05:09;;;;;;;57.20;3.97;;;;;;;;;;5094438;28;20478;-85
2024/03/17 13:07:38;;;;;;;58.37;4.10;;;;;;;;;;5086804;28;20443;-86
2024/03/17 13:10:07;;;;;;;60.20;4.57;;;;;;;;;;5093856;28;20443;-86
2024/03/17 13:12:34;;;;;;;58.27;4.17;;;;;;;;;;5093795;28;20438;-86
2024/03/17 13:15:02;;;;;;;58.30;4.67;;;;;;;;;;5093851;28;20459;-85
2024/03/17 13:17:30;;;;;;;57.83;4.00;;;;;;;;;;5092838;28;20447;-86
2024/03/17 13:19:57;;;;;;;58.80;5.43;;;;;;;;;;5093795;28;20442;-85
2024/03/17 13:22:25;;;;;;;57.50;4.33;;;;;;;;;;5093615;28;20428;-86
2024/03/17 13:24:53;;;;;;;57.77;3.60;;;;;;;;;;5093633;28;20495;-86
2024/03/17 13:27:21;;;;;;;60.50;4.20;;;;;;;;;;5093975;28;21171;-86
2024/03/17 13:29:51;;;;;;;58.57;4.17;;;;;;;;;;5094433;28;20447;-86
2024/03/17 13:32:18;;;;;;;58.83;4.13;;;;;;;;;;5095754;28;20438;-85
2024/03/17 13:34:45;;;;;;;57.40;3.93;;;;;;;;;;5097035;28;20520;-84
2024/03/17 13:37:13;;;;;;;58.63;4.13;;;;;;;;;;5098156;28;20935;-86
2024/03/17 13:39:40;;;;;;;57.37;4.50;;;;;;;;;;5094394;28;20492;-87
2024/03/17 13:42:09;;;;;;;58.37;4.23;;;;;;;;;;5099187;28;20443;-87
2024/03/17 13:44:36;;;;;;;61.33;6.37;;;;;;;;;;5099808;28;20829;-88
2024/03/17 13:47:04;;;;;;;57.87;4.73;;;;;;;;;;5097514;28;20472;-86
2024/03/17 13:49:31;;;;;;;56.77;3.97;;;;;;;;;;5096858;28;20442;-86
2024/03/17 13:51:59;;;;;;;58.30;4.23;;;;;;;;;;5096009;28;20439;-86
2024/03/17 13:54:26;;;;;;;57.77;4.50;;;;;;;;;;5095832;28;20899;-86
2024/03/17 13:56:54;;;;;;;58.67;3.97;;;;;;;;;;5095979;28;20440;-86
2024/03/17 13:59:23;;;;;;;57.73;4.10;;;;;;;;;;5095323;28;20454;-87
2024/03/17 14:01:50;;;;;;;56.97;4.10;;;;;;;;;;5095366;28;20435;-87
2024/03/17 14:04:17;;;;;;;57.40;3.90;;;;;;;;;;5096088;28;20482;-86
2024/03/17 14:06:46;;;;;;;59.10;4.20;;;;;;;;;;5095198;28;20516;-86
2024/03/17 14:09:14;;;;;;;57.60;4.13;;;;;;;;;;5096352;28;20455;-86
2024/03/17 14:11:41;;;;;;;58.80;4.30;;;;;;;;;;5098421;28;20466;-87
2024/03/17 14:14:09;;;;;;;57.27;4.30;;;;;;;;;;5116924;27;20478;-89
2024/03/17 14:16:37;;;;;;;58.37;4.40;;;;;;;;;;5117423;28;20486;-87
2024/03/17 14:19:05;;;;;;;59.83;4.97;;;;;;;;;;5117039;28;20447;-88
2024/03/17 14:21:32;;;;;;;57.00;3.70;;;;;;;;;;5116193;28;20455;-88
2024/03/17 14:24:01;;;;;;;58.27;4.30;;;;;;;;;;5115116;28;20479;-87
2024/03/17 14:26:28;;;;;;;58.37;4.13;;;;;;;;;;5111968;28;20500;-87
2024/03/17 14:28:56;;;;;;;58.00;4.20;;;;;;;;;;5111944;28;20465;-88
2024/03/17 14:31:24;;;;;;;59.50;4.93;;;;;;;;;;5111155;28;20455;-88
2024/03/17 14:33:52;;;;;;;58.70;5.00;;;;;;;;;;5114494;28;20460;-87
2024/03/17 14:36:26;;;;;;;59.10;4.70;;;;;;;;;;5115122;28;20568;-88
2024/03/17 14:38:53;;;;;;;60.40;4.97;;;;;;;;;;5115394;28;20450;-88
2024/03/17 14:41:21;;;;;;;56.90;3.70;;;;;;;;;;5116094;28;20454;-88
2024/03/17 14:43:48;;;;;;;58.77;5.53;;;;;;;;;;5116162;28;20439;-86
2024/03/17 14:46:17;;;;;;;57.50;4.17;;;;;;;;;;5114609;28;20474;-85
2024/03/17 14:48:44;;;;;;;56.93;3.70;;;;;;;;;;5108574;28;20508;-85
2024/03/17 14:51:13;;;;;;;57.50;4.07;;;;;;;;;;5093319;28;20970;-85
2024/03/17 14:53:47;;;;;;;57.47;4.03;;;;;;;;;;5093444;28;20519;-85